Time;durP1;ratioP1;P1;durP2;ratioP2;P2;SDS_P1;SDS_P2;PMS_P1;PMS_P2;Temp;Humidity;BMP_temperature;BMP_pressure;BME280_temperature;BME280_humidity;BME280_pressure;Samples;Min_cycle;Max_cycle;Signal;HPM_P1;HPM_P2
2021/09/23 00:00:24;;;;;;;11.17;9.20;;;10.90;99.90;;;;;;5068970;28;20213;-54
2021/09/23 00:05:25;;;;;;;12.47;9.47;;;10.80;99.90;;;;;;5068733;28;20504;-47
2021/09/23 00:07:52;;;;;;;14.33;10.30;;;10.80;99.90;;;;;;5068457;28;20435;-48
2021/09/23 00:10:21;;;;;;;15.30;9.40;;;10.80;99.90;;;;;;5068690;28;20982;-48
2021/09/23 00:12:47;;;;;;;12.80;9.47;;;10.70;99.90;;;;;;5068471;28;20470;-57
2021/09/23 00:15:15;;;;;;;13.30;10.17;;;10.70;99.90;;;;;;5078670;28;20754;-53
2021/09/23 00:17:47;;;;;;;11.60;8.40;;;10.70;99.90;;;;;;5092417;28;20464;-47
2021/09/23 00:20:21;;;;;;;12.00;8.03;;;10.60;99.90;;;;;;5076732;28;20743;-49
2021/09/23 00:22:47;;;;;;;11.53;8.50;;;10.60;99.90;;;;;;5092324;28;20463;-48
2021/09/23 00:25:13;;;;;;;13.03;9.40;;;10.60;99.90;;;;;;5091953;28;20426;-48
2021/09/23 00:27:40;;;;;;;10.93;8.77;;;10.50;99.90;;;;;;5092265;28;20418;-52
2021/09/23 00:30:07;;;;;;;9.97;8.70;;;10.50;99.90;;;;;;5085726;28;20428;-50
2021/09/23 00:32:33;;;;;;;14.00;9.20;;;10.40;99.90;;;;;;5071733;28;20463;-48
2021/09/23 00:34:59;;;;;;;13.50;8.93;;;10.40;99.90;;;;;;5071888;28;20439;-48
2021/09/23 00:37:24;;;;;;;12.30;9.50;;;10.30;99.90;;;;;;5083519;28;20181;-49
2021/09/23 00:39:50;;;;;;;13.67;9.70;;;10.30;99.90;;;;;;5091909;28;20238;-49
2021/09/23 00:42:15;;;;;;;13.40;9.47;;;10.40;99.90;;;;;;5091049;28;20659;-51
2021/09/23 00:45:02;;;;;;;11.00;9.30;;;10.30;99.90;;;;;;5089781;28;20203;-51
2021/09/23 00:47:28;;;;;;;13.20;9.50;;;10.30;99.90;;;;;;5091800;28;20540;-49
2021/09/23 00:49:54;;;;;;;12.37;9.47;;;10.30;99.90;;;;;;5091425;28;20426;-55
2021/09/23 00:52:24;;;;;;;19.17;10.43;;;10.20;99.90;;;;;;5091934;28;20459;-51
2021/09/23 00:54:50;;;;;;;11.20;9.17;;;10.20;99.90;;;;;;5087916;28;20431;-46
2021/09/23 00:57:17;;;;;;;11.23;9.60;;;10.20;99.90;;;;;;5080447;28;20437;-52
2021/09/23 00:59:47;;;;;;;12.33;9.60;;;10.10;99.90;;;;;;5071479;28;20407;-50
2021/09/23 01:02:12;;;;;;;12.50;9.80;;;10.10;99.90;;;;;;5091188;28;20422;-49
2021/09/23 01:04:43;;;;;;;13.73;8.97;;;10.00;99.90;;;;;;5091518;28;20544;-53
2021/09/23 01:07:13;;;;;;;10.97;9.13;;;10.00;99.90;;;;;;5091259;28;20184;-49
2021/09/23 01:09:59;;;;;;;12.50;9.67;;;10.00;99.90;;;;;;5090898;28;20504;-49
2021/09/23 01:12:26;;;;;;;13.10;9.60;;;10.00;99.90;;;;;;5050975;28;20543;-53
2021/09/23 01:14:53;;;;;;;12.40;9.40;;;10.00;99.90;;;;;;5051451;28;20401;-52
2021/09/23 01:17:18;;;;;;;13.50;9.57;;;9.90;99.90;;;;;;5051163;28;20757;-48
2021/09/23 01:19:45;;;;;;;15.03;10.20;;;9.90;99.90;;;;;;5051210;28;20408;-52
2021/09/23 01:22:12;;;;;;;14.53;9.53;;;9.90;99.90;;;;;;5051290;28;20265;-52
2021/09/23 01:24:39;;;;;;;11.50;9.83;;;9.90;99.90;;;;;;5050386;28;20478;-49
2021/09/23 01:27:06;;;;;;;13.13;9.27;;;9.90;99.90;;;;;;5051154;28;20424;-48
2021/09/23 01:29:32;;;;;;;13.17;10.40;;;9.80;99.90;;;;;;5052445;28;20543;-47
2021/09/23 01:31:58;;;;;;;11.60;9.13;;;9.70;99.90;;;;;;5070727;28;20463;-50
2021/09/23 01:34:23;;;;;;;16.57;10.73;;;9.80;99.90;;;;;;5070914;28;20408;-47
2021/09/23 01:36:49;;;;;;;11.97;9.67;;;9.80;99.90;;;;;;5070790;28;20245;-51
2021/09/23 01:39:18;;;;;;;18.07;11.00;;;9.80;99.90;;;;;;5071036;28;20834;-53
2021/09/23 01:41:44;;;;;;;19.90;11.70;;;9.70;99.90;;;;;;5070930;28;20184;-56
2021/09/23 01:44:10;;;;;;;16.10;11.87;;;9.60;99.90;;;;;;5070330;28;20563;-48
2021/09/23 01:46:35;;;;;;;12.90;10.60;;;9.60;99.90;;;;;;5070725;28;20189;-50
2021/09/23 01:49:01;;;;;;;18.10;10.33;;;9.50;99.90;;;;;;5070520;28;20184;-50
2021/09/23 01:51:26;;;;;;;11.63;9.80;;;9.50;99.90;;;;;;5070486;28;20213;-48
2021/09/23 01:53:52;;;;;;;11.27;9.77;;;9.50;99.90;;;;;;5070653;28;20173;-50
2021/09/23 01:56:17;;;;;;;13.87;9.87;;;9.50;99.90;;;;;;5070385;28;20190;-49
2021/09/23 01:58:43;;;;;;;12.00;10.27;;;9.50;99.90;;;;;;5068337;28;20207;-51
2021/09/23 02:01:08;;;;;;;12.20;10.10;;;9.50;99.90;;;;;;5083218;28;20181;-50
2021/09/23 02:03:34;;;;;;;12.47;9.90;;;9.50;99.90;;;;;;5089061;28;20191;-50
2021/09/23 02:05:59;;;;;;;13.30;9.83;;;9.60;99.90;;;;;;5089212;28;20639;-52
2021/09/23 02:08:25;;;;;;;16.33;10.63;;;9.70;99.90;;;;;;5090373;28;20192;-51
2021/09/23 02:10:50;;;;;;;11.97;9.87;;;9.70;99.90;;;;;;5090178;28;20209;-51
2021/09/23 02:13:16;;;;;;;16.97;11.97;;;9.80;99.90;;;;;;5090020;28;20181;-49
2021/09/23 02:15:41;;;;;;;17.60;10.33;;;9.80;99.90;;;;;;5090299;28;20227;-50
2021/09/23 02:18:07;;;;;;;15.20;10.20;;;10.00;99.90;;;;;;5089114;28;20199;-54
2021/09/23 02:20:33;;;;;;;15.20;10.57;;;10.00;99.90;;;;;;5090198;28;20719;-49
2021/09/23 02:22:58;;;;;;;13.10;9.87;;;10.00;99.90;;;;;;5089951;28;20189;-52
2021/09/23 02:25:24;;;;;;;15.53;10.37;;;10.10;99.90;;;;;;5090077;28;20184;-49
2021/09/23 02:27:49;;;;;;;19.60;10.53;;;10.10;99.90;;;;;;5089029;28;20187;-50
2021/09/23 02:30:15;;;;;;;15.43;10.87;;;10.20;99.90;;;;;;5089843;28;20966;-51
2021/09/23 02:32:40;;;;;;;13.97;9.83;;;10.10;99.90;;;;;;5085581;28;20726;-49
2021/09/23 02:35:07;;;;;;;14.23;9.60;;;10.20;99.90;;;;;;5088866;28;20196;-49
2021/09/23 02:37:33;;;;;;;12.53;9.90;;;10.20;99.90;;;;;;5089927;28;20188;-50
2021/09/23 02:39:58;;;;;;;10.40;8.57;;;10.20;99.90;;;;;;5088431;28;20419;-54
2021/09/23 02:42:25;;;;;;;19.13;10.00;;;10.20;99.90;;;;;;5087656;28;20260;-50
2021/09/23 02:44:51;;;;;;;10.47;9.37;;;10.30;99.90;;;;;;5068542;28;20629;-50
2021/09/23 02:47:16;;;;;;;12.30;9.50;;;10.30;99.90;;;;;;5069972;28;20469;-50
2021/09/23 02:49:42;;;;;;;11.70;9.60;;;10.30;99.90;;;;;;5085105;28;20419;-49
2021/09/23 02:52:08;;;;;;;12.13;9.30;;;10.30;99.90;;;;;;5089542;28;20335;-51
2021/09/23 02:54:34;;;;;;;11.00;9.53;;;10.30;99.90;;;;;;5088618;28;20176;-48
2021/09/23 02:57:00;;;;;;;12.93;9.20;;;10.30;99.90;;;;;;5081933;28;21079;-51
2021/09/23 02:59:25;;;;;;;17.93;10.70;;;10.30;99.90;;;;;;5068039;28;20200;-58
2021/09/23 03:01:51;;;;;;;12.50;9.40;;;10.30;99.90;;;;;;5069198;28;20252;-51
2021/09/23 03:04:16;;;;;;;13.00;8.80;;;10.30;99.90;;;;;;5069097;28;20665;-49
2021/09/23 03:06:42;;;;;;;14.03;9.23;;;10.30;99.90;;;;;;5069036;28;20231;-48
2021/09/23 03:09:08;;;;;;;10.77;8.63;;;10.20;99.90;;;;;;5069090;28;20656;-58
2021/09/23 03:11:35;;;;;;;11.63;8.37;;;10.30;99.90;;;;;;5069292;28;20226;-53
2021/09/23 03:14:01;;;;;;;12.57;8.30;;;10.20;99.90;;;;;;5067639;28;20436;-52
2021/09/23 03:16:27;;;;;;;10.27;8.43;;;10.20;99.90;;;;;;5069098;28;20426;-46
2021/09/23 03:18:52;;;;;;;11.60;8.27;;;10.10;99.90;;;;;;5068935;28;20181;-52
2021/09/23 03:21:19;;;;;;;12.93;9.03;;;10.10;99.90;;;;;;5068974;28;20428;-49
2021/09/23 03:23:45;;;;;;;10.40;8.30;;;10.10;99.90;;;;;;5079538;28;20173;-49
2021/09/23 03:26:11;;;;;;;14.23;8.33;;;10.00;99.90;;;;;;5089074;28;20430;-57
2021/09/23 03:28:36;;;;;;;10.57;8.23;;;10.00;99.90;;;;;;5087826;28;20423;-55
2021/09/23 03:31:02;;;;;;;9.53;8.20;;;9.90;99.90;;;;;;5074717;28;20208;-46
2021/09/23 03:33:28;;;;;;;10.07;7.70;;;10.00;99.90;;;;;;5077175;28;20197;-49
2021/09/23 03:35:53;;;;;;;9.93;8.00;;;9.90;99.90;;;;;;5088935;28;20643;-52
2021/09/23 03:38:19;;;;;;;16.50;8.70;;;9.90;99.90;;;;;;5089290;28;20609;-51
2021/09/23 03:40:45;;;;;;;10.93;8.70;;;9.80;99.90;;;;;;5089163;28;20205;-49
2021/09/23 03:43:12;;;;;;;12.40;8.77;;;9.80;99.90;;;;;;5080569;28;20347;-50
2021/09/23 03:45:38;;;;;;;14.70;9.30;;;9.70;99.90;;;;;;5084227;28;20419;-49
2021/09/23 03:48:04;;;;;;;8.97;7.73;;;9.70;99.90;;;;;;5090718;28;20480;-51
2021/09/23 03:50:30;;;;;;;10.90;8.40;;;9.60;99.90;;;;;;5090512;28;20431;-49
2021/09/23 03:52:55;;;;;;;11.53;8.97;;;9.60;99.90;;;;;;5089472;28;20423;-51
2021/09/23 03:55:21;;;;;;;11.37;8.93;;;9.50;99.90;;;;;;5092402;28;20201;-47
2021/09/23 03:57:47;;;;;;;16.80;9.47;;;9.50;99.90;;;;;;5072848;28;20178;-49
2021/09/23 04:00:14;;;;;;;12.53;9.03;;;9.50;99.90;;;;;;5074682;28;20180;-47
2021/09/23 04:02:40;;;;;;;13.50;9.50;;;9.40;99.90;;;;;;5081868;28;20219;-50
2021/09/23 04:05:05;;;;;;;11.90;8.80;;;9.40;99.90;;;;;;5083727;28;21055;-50
2021/09/23 04:07:31;;;;;;;10.50;8.37;;;9.30;99.90;;;;;;5081712;28;20423;-51
2021/09/23 04:09:56;;;;;;;10.13;9.00;;;9.30;99.90;;;;;;5089024;28;20184;-51
2021/09/23 04:12:22;;;;;;;12.20;9.90;;;9.30;99.90;;;;;;5079012;28;20681;-47
2021/09/23 04:14:48;;;;;;;12.00;9.00;;;9.30;99.90;;;;;;5052536;28;20178;-52
2021/09/23 04:17:13;;;;;;;12.37;9.57;;;9.30;99.90;;;;;;5052387;28;20165;-52
2021/09/23 04:19:39;;;;;;;13.63;9.40;;;9.30;99.90;;;;;;5052674;28;20219;-49
2021/09/23 04:22:05;;;;;;;12.50;8.77;;;9.30;99.90;;;;;;5052383;28;20185;-49
2021/09/23 04:24:31;;;;;;;15.53;9.83;;;9.20;99.90;;;;;;5052149;28;20572;-51
2021/09/23 04:26:56;;;;;;;13.37;9.13;;;9.20;99.90;;;;;;5051088;28;20463;-49
2021/09/23 04:29:22;;;;;;;14.00;10.00;;;9.20;99.90;;;;;;5052147;28;20205;-49
2021/09/23 04:31:47;;;;;;;12.60;9.33;;;9.10;99.90;;;;;;5052076;28;20217;-50
2021/09/23 04:34:13;;;;;;;12.57;9.70;;;9.10;99.90;;;;;;5051994;28;20515;-49
2021/09/23 04:36:39;;;;;;;14.57;10.27;;;9.10;99.90;;;;;;5052011;28;20166;-48
2021/09/23 04:39:05;;;;;;;14.83;10.07;;;9.20;99.90;;;;;;5051791;28;20175;-49
2021/09/23 04:41:31;;;;;;;13.83;9.90;;;9.20;99.90;;;;;;5051992;28;20170;-49
2021/09/23 04:43:56;;;;;;;12.70;9.83;;;9.20;99.90;;;;;;5066201;28;20455;-50
2021/09/23 04:46:24;;;;;;;13.47;10.03;;;9.10;99.90;;;;;;5071658;28;20165;-47
2021/09/23 04:48:51;;;;;;;12.53;10.10;;;9.10;99.90;;;;;;5071881;28;20166;-58
2021/09/23 04:51:25;;;;;;;14.67;10.77;;;9.10;99.90;;;;;;5071560;28;20451;-47
2021/09/23 04:53:51;;;;;;;18.23;10.40;;;9.10;99.90;;;;;;5071460;28;20411;-47
2021/09/23 04:56:17;;;;;;;12.93;10.33;;;9.00;99.90;;;;;;5071636;28;20491;-52
2021/09/23 04:58:42;;;;;;;15.70;9.97;;;9.00;99.90;;;;;;5070684;28;20158;-50
2021/09/23 05:01:08;;;;;;;15.70;11.73;;;9.00;99.90;;;;;;5071212;28;20200;-48
2021/09/23 05:03:33;;;;;;;14.00;10.27;;;9.10;99.90;;;;;;5071379;28;20189;-49
2021/09/23 05:05:59;;;;;;;13.90;10.40;;;9.10;99.90;;;;;;5058550;28;20185;-52
2021/09/23 05:08:25;;;;;;;15.43;11.30;;;9.10;99.90;;;;;;5075400;28;20614;-54
2021/09/23 05:10:51;;;;;;;13.97;9.97;;;9.10;99.90;;;;;;5087618;28;20238;-47
2021/09/23 05:13:17;;;;;;;15.33;10.30;;;9.20;99.90;;;;;;5089977;28;20809;-47
2021/09/23 05:15:43;;;;;;;11.83;10.20;;;9.20;99.90;;;;;;5089350;28;20415;-49
2021/09/23 05:18:09;;;;;;;15.10;11.00;;;9.20;99.90;;;;;;5091142;28;20411;-48
2021/09/23 05:20:35;;;;;;;16.90;10.97;;;9.10;99.90;;;;;;5089824;28;20177;-49
2021/09/23 05:23:01;;;;;;;14.50;10.50;;;9.20;99.90;;;;;;5091004;28;20434;-53
2021/09/23 05:25:27;;;;;;;12.60;10.57;;;9.20;99.90;;;;;;5087734;28;20483;-50
2021/09/23 05:27:54;;;;;;;14.47;11.47;;;9.30;99.90;;;;;;5090347;28;20181;-52
2021/09/23 05:30:20;;;;;;;14.50;10.80;;;9.30;99.90;;;;;;5091310;28;20480;-48
2021/09/23 05:32:45;;;;;;;16.53;11.90;;;9.30;99.90;;;;;;5089445;28;21056;-50
2021/09/23 05:35:11;;;;;;;14.53;11.10;;;9.30;99.90;;;;;;5090899;28;20510;-54
2021/09/23 05:37:37;;;;;;;13.50;11.73;;;9.30;99.90;;;;;;5086257;28;20173;-48
2021/09/23 05:40:04;;;;;;;13.23;11.03;;;9.30;99.90;;;;;;5089457;28;20761;-48
2021/09/23 05:42:29;;;;;;;15.67;11.43;;;9.40;99.90;;;;;;5087675;28;20827;-52
2021/09/23 05:44:55;;;;;;;14.93;11.67;;;9.40;99.90;;;;;;5088089;28;20561;-53
2021/09/23 05:47:20;;;;;;;13.70;11.53;;;9.40;99.90;;;;;;5090915;28;20200;-49
2021/09/23 05:49:46;;;;;;;14.90;11.73;;;9.50;99.90;;;;;;5089629;28;20210;-48
2021/09/23 05:52:12;;;;;;;15.80;12.03;;;9.50;99.90;;;;;;5089525;28;20296;-48
2021/09/23 05:54:37;;;;;;;14.07;11.90;;;9.50;99.90;;;;;;5090303;28;20188;-58
2021/09/23 05:57:03;;;;;;;18.17;12.60;;;9.60;99.90;;;;;;5083229;28;20215;-50
2021/09/23 05:59:28;;;;;;;14.73;12.10;;;9.60;99.90;;;;;;5072886;28;20185;-51
2021/09/23 06:01:55;;;;;;;17.80;13.40;;;9.60;99.90;;;;;;5080492;28;20184;-54
2021/09/23 06:04:21;;;;;;;15.63;12.57;;;9.60;99.90;;;;;;5088101;28;20975;-52
2021/09/23 06:06:47;;;;;;;15.30;11.90;;;9.70;99.90;;;;;;5079368;28;20435;-50
2021/09/23 06:09:13;;;;;;;18.07;13.10;;;9.70;99.90;;;;;;5070011;28;20424;-52
2021/09/23 06:11:39;;;;;;;14.97;12.27;;;9.80;99.90;;;;;;5069609;28;20451;-48
2021/09/23 06:14:06;;;;;;;21.83;14.13;;;9.90;99.90;;;;;;5085527;28;20180;-50
2021/09/23 06:16:31;;;;;;;16.90;13.30;;;9.90;99.90;;;;;;5090154;28;20415;-49
2021/09/23 06:18:57;;;;;;;19.57;14.00;;;10.00;99.90;;;;;;5087689;28;20425;-48
2021/09/23 06:21:22;;;;;;;16.90;12.40;;;10.00;99.90;;;;;;5087292;28;20224;-47
2021/09/23 06:23:48;;;;;;;15.00;12.37;;;10.00;99.90;;;;;;5085998;28;20198;-50
2021/09/23 06:26:13;;;;;;;18.37;12.80;;;10.10;99.90;;;;;;5089193;28;20196;-48
2021/09/23 06:28:39;;;;;;;15.43;13.27;;;10.20;99.90;;;;;;5090110;28;20238;-50
2021/09/23 06:31:05;;;;;;;17.20;12.87;;;10.30;99.90;;;;;;5089816;28;20203;-50
2021/09/23 06:33:30;;;;;;;17.33;13.60;;;10.40;99.90;;;;;;5089795;28;20591;-48
2021/09/23 06:35:56;;;;;;;19.83;11.90;;;10.40;99.90;;;;;;5089633;28;20191;-48
2021/09/23 06:38:22;;;;;;;18.07;13.07;;;10.60;99.90;;;;;;5086834;28;20181;-52
2021/09/23 06:40:48;;;;;;;19.53;13.67;;;10.70;99.90;;;;;;5089613;28;20415;-49
2021/09/23 06:43:13;;;;;;;15.33;12.43;;;10.80;99.90;;;;;;5089148;28;20277;-54
2021/09/23 06:45:39;;;;;;;14.70;11.80;;;10.90;99.90;;;;;;5089747;28;21039;-49
2021/09/23 06:48:04;;;;;;;15.00;12.23;;;11.00;99.90;;;;;;5089731;28;20177;-57
2021/09/23 06:50:30;;;;;;;19.67;12.40;;;11.10;99.90;;;;;;5089366;28;20180;-56
2021/09/23 06:52:56;;;;;;;16.83;11.90;;;11.20;99.90;;;;;;5089379;28;20200;-47
2021/09/23 06:55:21;;;;;;;15.30;11.53;;;11.30;99.90;;;;;;5087953;28;20188;-49
2021/09/23 06:57:47;;;;;;;13.70;12.27;;;11.50;99.90;;;;;;5081226;28;20515;-51
2021/09/23 07:00:13;;;;;;;14.27;12.87;;;11.60;99.90;;;;;;5089515;28;20204;-49
2021/09/23 07:02:38;;;;;;;13.37;11.43;;;11.70;99.90;;;;;;5088512;28;20697;-51
2021/09/23 07:05:05;;;;;;;13.97;11.10;;;11.80;99.90;;;;;;5089195;28;20411;-56
2021/09/23 07:07:30;;;;;;;14.73;10.63;;;11.90;99.90;;;;;;5072184;28;20239;-53
2021/09/23 07:09:56;;;;;;;12.53;11.00;;;12.00;99.90;;;;;;5069140;28;20432;-49
2021/09/23 07:12:21;;;;;;;13.27;11.90;;;12.10;99.90;;;;;;5087520;28;20228;-49
2021/09/23 07:14:48;;;;;;;14.37;12.00;;;12.20;99.90;;;;;;5089285;28;20180;-48
2021/09/23 07:17:13;;;;;;;17.50;12.83;;;12.30;99.90;;;;;;5087857;28;20541;-58
2021/09/23 07:19:39;;;;;;;12.80;10.63;;;12.50;99.90;;;;;;5088986;28;20410;-54
2021/09/23 07:22:05;;;;;;;15.67;11.43;;;12.60;99.90;;;;;;5085564;28;20185;-52
2021/09/23 07:24:31;;;;;;;10.53;9.47;;;12.70;99.90;;;;;;5093331;28;20753;-50
2021/09/23 07:26:57;;;;;;;13.87;12.07;;;12.90;99.90;;;;;;5089255;28;20460;-48
2021/09/23 07:29:22;;;;;;;12.43;10.60;;;13.00;99.90;;;;;;5053353;28;20166;-49
2021/09/23 07:31:48;;;;;;;13.20;10.77;;;13.20;99.90;;;;;;5053221;28;20455;-51
2021/09/23 07:34:14;;;;;;;13.33;11.50;;;13.40;99.90;;;;;;5053217;28;20637;-53
2021/09/23 07:36:40;;;;;;;11.27;10.07;;;13.60;99.90;;;;;;5052949;28;20185;-51
2021/09/23 07:39:08;;;;;;;13.63;10.60;;;13.70;99.90;;;;;;5052947;28;20198;-50
2021/09/23 07:41:37;;;;;;;11.03;9.90;;;13.90;99.90;;;;;;5052841;28;20512;-58
2021/09/23 07:44:03;;;;;;;10.40;9.40;;;14.00;99.90;;;;;;5067944;28;20456;-50
2021/09/23 07:46:29;;;;;;;10.87;9.77;;;14.20;99.90;;;;;;5072503;28;20807;-54
2021/09/23 07:48:55;;;;;;;9.10;8.20;;;14.30;99.90;;;;;;5072689;28;20404;-50
2021/09/23 07:51:20;;;;;;;10.93;9.77;;;14.40;99.90;;;;;;5072583;28;20285;-48
2021/09/23 07:53:47;;;;;;;9.60;8.10;;;14.60;99.90;;;;;;5072594;28;20177;-49
2021/09/23 07:56:15;;;;;;;11.27;9.00;;;14.80;99.90;;;;;;5072698;28;20542;-51
2021/09/23 07:58:41;;;;;;;10.40;8.50;;;15.00;99.90;;;;;;5072701;28;20416;-47
2021/09/23 08:01:08;;;;;;;10.77;8.63;;;15.20;99.90;;;;;;5072572;28;20795;-49
2021/09/23 08:03:34;;;;;;;8.83;7.93;;;15.40;99.90;;;;;;5072727;28;20416;-48
2021/09/23 08:05:59;;;;;;;9.03;8.13;;;15.60;99.90;;;;;;5072364;28;20473;-50
2021/09/23 08:08:25;;;;;;;11.53;8.47;;;15.90;99.90;;;;;;5070637;28;20276;-51
2021/09/23 08:10:50;;;;;;;8.27;7.57;;;16.20;99.90;;;;;;5065831;28;20192;-51
2021/09/23 08:13:16;;;;;;;9.70;7.93;;;16.50;99.90;;;;;;5076003;28;20190;-50
2021/09/23 08:15:42;;;;;;;8.20;7.40;;;16.70;99.90;;;;;;5072226;28;20183;-50
2021/09/23 08:18:08;;;;;;;8.13;7.43;;;17.10;99.90;;;;;;5072964;28;20208;-52
2021/09/23 08:20:34;;;;;;;8.87;7.60;;;17.70;99.90;;;;;;5091627;28;20489;-52
2021/09/23 08:23:00;;;;;;;7.13;6.53;;;18.40;99.90;;;;;;5091280;28;20426;-50
2021/09/23 08:25:26;;;;;;;7.60;6.90;;;19.00;99.90;;;;;;5090160;28;20423;-51
2021/09/23 08:27:51;;;;;;;9.53;7.30;;;19.70;99.90;;;;;;5091116;28;20184;-47
2021/09/23 08:30:17;;;;;;;7.30;6.70;;;20.50;99.90;;;;;;5092278;28;20201;-46
2021/09/23 08:32:43;;;;;;;6.43;5.93;;;20.90;99.90;;;;;;5092089;28;20209;-46
2021/09/23 08:35:09;;;;;;;6.80;6.10;;;21.60;99.90;;;;;;5091749;28;20190;-50
2021/09/23 08:37:36;;;;;;;7.00;6.50;;;22.40;95.60;;;;;;5092202;28;20172;-52
2021/09/23 08:40:07;;;;;;;6.47;5.97;;;22.90;95.20;;;;;;5092292;28;20425;-52
2021/09/23 08:42:34;;;;;;;6.80;6.30;;;23.50;94.00;;;;;;5088599;28;20458;-49
2021/09/23 08:44:59;;;;;;;6.40;5.90;;;23.70;91.10;;;;;;5090326;28;20772;-50
2021/09/23 08:47:25;;;;;;;6.20;5.73;;;23.80;87.70;;;;;;5093422;28;20415;-51
2021/09/23 08:49:51;;;;;;;6.07;5.67;;;23.50;90.20;;;;;;5091673;28;20181;-53
2021/09/23 08:52:17;;;;;;;6.33;5.93;;;23.50;89.50;;;;;;5090089;28;20614;-55
2021/09/23 08:54:42;;;;;;;6.50;6.00;;;23.60;88.30;;;;;;5093166;28;20306;-49
2021/09/23 08:57:08;;;;;;;6.73;6.23;;;23.50;86.90;;;;;;5092762;28;20415;-52
2021/09/23 08:59:34;;;;;;;5.63;5.23;;;23.40;85.50;;;;;;5093303;28;20419;-49
2021/09/23 09:01:59;;;;;;;5.67;5.27;;;22.90;85.00;;;;;;5079163;28;20308;-49
2021/09/23 09:04:34;;;;;;;5.40;5.10;;;22.60;83.00;;;;;;5079649;28;20179;-51
2021/09/23 09:07:02;;;;;;;5.50;5.10;;;22.30;83.00;;;;;;5093040;28;20219;-51
2021/09/23 09:09:28;;;;;;;4.40;4.10;;;22.30;84.00;;;;;;5072989;28;20957;-49
2021/09/23 09:11:56;;;;;;;5.90;5.40;;;21.90;80.60;;;;;;5076749;28;20461;-52
2021/09/23 09:14:30;;;;;;;5.33;4.93;;;21.70;80.60;;;;;;5078932;28;20433;-48
2021/09/23 09:17:02;;;;;;;5.27;4.87;;;21.60;82.40;;;;;;5060491;28;20457;-49
2021/09/23 09:19:52;;;;;;;5.40;4.90;;;21.50;85.70;;;;;;5072662;28;20416;-49
2021/09/23 09:22:21;;;;;;;5.90;5.50;;;22.10;85.30;;;;;;5072619;28;20433;-48
2021/09/23 09:24:48;;;;;;;5.40;5.00;;;22.60;82.20;;;;;;5072319;28;20433;-52
2021/09/23 09:27:31;;;;;;;5.20;4.80;;;23.00;80.10;;;;;;5070986;28;20447;-48
2021/09/23 09:30:10;;;;;;;6.00;5.60;;;23.20;78.30;;;;;;5088369;28;20444;-51
2021/09/23 09:32:42;;;;;;;5.30;4.80;;;23.10;75.70;;;;;;5089175;28;20470;-55
2021/09/23 09:35:10;;;;;;;5.37;5.07;;;23.30;78.70;;;;;;5089747;28;20434;-48
2021/09/23 09:37:37;;;;;;;4.90;4.60;;;24.10;80.00;;;;;;5092532;28;20962;-50
2021/09/23 09:40:03;;;;;;;5.77;5.37;;;25.30;76.40;;;;;;5092334;28;20424;-52
2021/09/23 09:42:30;;;;;;;5.63;5.23;;;26.40;69.40;;;;;;5089651;28;20450;-54
2021/09/23 09:44:57;;;;;;;6.20;5.60;;;27.20;62.30;;;;;;5086871;28;20476;-57
2021/09/23 09:47:33;;;;;;;5.40;5.10;;;27.80;58.40;;;;;;5090713;28;20467;-49
2021/09/23 09:50:12;;;;;;;6.03;5.40;;;28.00;55.20;;;;;;5090574;28;20963;-49
2021/09/23 09:52:39;;;;;;;5.53;5.23;;;28.00;53.20;;;;;;5089676;28;21055;-50
2021/09/23 09:55:11;;;;;;;5.30;5.00;;;27.70;54.80;;;;;;5089032;28;20480;-52
2021/09/23 09:57:44;;;;;;;5.53;5.00;;;27.90;53.00;;;;;;5089406;28;20487;-54
2021/09/23 10:00:11;;;;;;;5.50;5.20;;;28.10;53.50;;;;;;5090598;28;20426;-49
2021/09/23 10:02:37;;;;;;;5.33;5.03;;;27.60;52.30;;;;;;5089861;28;20422;-54
2021/09/23 10:05:03;;;;;;;6.00;5.60;;;27.80;54.30;;;;;;5087838;28;20418;-52
2021/09/23 10:07:30;;;;;;;5.23;4.93;;;27.70;51.50;;;;;;5090346;28;20516;-52
2021/09/23 10:09:56;;;;;;;5.97;5.57;;;28.00;50.80;;;;;;5089489;28;20726;-56
2021/09/23 10:12:23;;;;;;;5.60;5.10;;;28.50;50.30;;;;;;5087261;28;20467;-52
2021/09/23 10:14:50;;;;;;;6.10;5.63;;;27.50;48.80;;;;;;5075465;28;20447;-51
2021/09/23 10:17:16;;;;;;;5.63;5.33;;;26.80;50.70;;;;;;5090244;28;20418;-51
2021/09/23 10:19:43;;;;;;;5.40;5.10;;;26.40;52.10;;;;;;5089984;28;20483;-48
2021/09/23 10:22:12;;;;;;;5.97;5.30;;;26.40;55.10;;;;;;5090170;28;20954;-49
2021/09/23 10:24:40;;;;;;;6.03;5.63;;;26.90;52.30;;;;;;5089911;28;20449;-52
2021/09/23 10:27:57;;;;;;;5.80;5.43;;;27.00;51.20;;;;;;5087362;28;20423;-51
2021/09/23 10:29:53;;;;;;;6.00;5.60;;;26.90;54.00;;;;;;5089824;28;20442;-57
2021/09/23 10:32:19;;;;;;;5.40;5.10;;;27.70;52.60;;;;;;5089823;28;20971;-51
2021/09/23 10:34:49;;;;;;;5.97;5.47;;;28.00;50.20;;;;;;5088802;28;20408;-50
2021/09/23 10:37:15;;;;;;;4.97;4.67;;;27.00;52.40;;;;;;5086601;28;20421;-51
2021/09/23 10:39:41;;;;;;;5.73;5.33;;;26.50;50.00;;;;;;5088698;28;20409;-48
2021/09/23 10:42:11;;;;;;;5.87;5.57;;;26.10;52.50;;;;;;5089062;28;21013;-50
2021/09/23 10:44:38;;;;;;;5.70;5.40;;;25.80;53.60;;;;;;5079141;28;20439;-50
2021/09/23 10:47:06;;;;;;;5.67;5.37;;;25.50;55.40;;;;;;5089953;28;20984;-51
2021/09/23 10:49:34;;;;;;;6.40;6.00;;;25.30;53.40;;;;;;5089840;28;20501;-50
2021/09/23 10:51:59;;;;;;;6.23;5.83;;;25.00;54.00;;;;;;5088444;28;20462;-53
2021/09/23 10:54:27;;;;;;;6.40;5.80;;;25.00;55.10;;;;;;5089510;28;20523;-53
2021/09/23 10:56:53;;;;;;;5.47;5.17;;;25.10;55.30;;;;;;5082545;28;20178;-51
2021/09/23 10:59:20;;;;;;;5.77;5.47;;;25.40;54.50;;;;;;5081897;28;20432;-49
2021/09/23 11:01:46;;;;;;;5.97;5.63;;;25.70;54.70;;;;;;5088882;28;20852;-51
2021/09/23 11:04:13;;;;;;;5.80;5.40;;;26.30;54.80;;;;;;5089402;28;20421;-49
2021/09/23 11:06:41;;;;;;;6.13;5.73;;;27.20;53.30;;;;;;5088349;28;20453;-50
2021/09/23 11:09:18;;;;;;;6.00;5.60;;;28.20;51.20;;;;;;5089553;28;20430;-48
2021/09/23 11:11:58;;;;;;;5.47;5.07;;;28.90;48.00;;;;;;5089264;28;20462;-48
2021/09/23 11:14:25;;;;;;;6.03;5.63;;;29.00;45.50;;;;;;5074991;28;20428;-57
2021/09/23 11:16:53;;;;;;;6.07;5.73;;;29.10;46.20;;;;;;5069066;28;20763;-51
2021/09/23 11:19:22;;;;;;;5.90;5.40;;;29.10;45.00;;;;;;5081711;28;20442;-49
2021/09/23 11:21:49;;;;;;;5.70;5.40;;;28.50;45.60;;;;;;5087551;28;20459;-53
2021/09/23 11:24:16;;;;;;;5.93;5.43;;;28.80;45.70;;;;;;5088476;28;20434;-52
2021/09/23 11:26:42;;;;;;;6.10;5.70;;;28.10;46.20;;;;;;5087235;28;20964;-51
2021/09/23 11:29:09;;;;;;;6.63;6.23;;;28.10;47.40;;;;;;5072060;28;20485;-51
2021/09/23 11:31:55;;;;;;;6.37;5.87;;;28.50;46.20;;;;;;5049006;28;20460;-53
2021/09/23 11:34:35;;;;;;;6.40;6.10;;;29.00;45.20;;;;;;5048789;28;20478;-50
2021/09/23 11:37:05;;;;;;;5.87;5.50;;;28.10;43.80;;;;;;5047401;28;20437;-52
2021/09/23 11:39:31;;;;;;;6.20;5.80;;;27.50;45.40;;;;;;5048591;28;20400;-49
2021/09/23 11:42:15;;;;;;;6.20;5.80;;;27.10;46.60;;;;;;5049173;28;20458;-50
2021/09/23 11:44:42;;;;;;;5.97;5.57;;;26.80;46.90;;;;;;5048993;28;20201;-49
2021/09/23 11:47:12;;;;;;;6.00;5.70;;;26.70;47.80;;;;;;5050209;28;20478;-50
2021/09/23 11:49:38;;;;;;;6.13;5.73;;;26.90;48.30;;;;;;5049077;28;20966;-49
2021/09/23 11:52:03;;;;;;;6.57;5.97;;;27.90;46.80;;;;;;5048864;28;20471;-49
2021/09/23 11:54:29;;;;;;;6.40;5.90;;;27.80;45.70;;;;;;5049200;28;20193;-49
2021/09/23 11:56:54;;;;;;;5.77;5.37;;;27.60;46.60;;;;;;5054878;28;20211;-52
2021/09/23 11:59:24;;;;;;;6.73;6.33;;;27.00;46.40;;;;;;5068789;28;20165;-54
2021/09/23 12:02:06;;;;;;;6.73;6.23;;;27.10;46.30;;;;;;5068898;28;20187;-53
2021/09/23 12:04:32;;;;;;;6.13;5.73;;;27.10;46.70;;;;;;5069136;28;20402;-50
2021/09/23 12:07:06;;;;;;;7.07;6.37;;;26.90;46.20;;;;;;5068695;28;20466;-49
2021/09/23 12:09:33;;;;;;;6.53;6.13;;;26.90;46.20;;;;;;5071264;28;20418;-48
2021/09/23 12:12:02;;;;;;;6.87;6.47;;;26.80;45.30;;;;;;5072421;28;21009;-52
2021/09/23 12:14:28;;;;;;;6.47;6.07;;;26.80;44.80;;;;;;5065682;28;20794;-53
2021/09/23 12:17:07;;;;;;;6.70;6.30;;;26.70;46.30;;;;;;5072693;28;20563;-51
2021/09/23 12:19:33;;;;;;;6.30;6.00;;;27.50;44.80;;;;;;5091195;28;20185;-51
2021/09/23 12:22:00;;;;;;;6.53;6.07;;;28.20;44.20;;;;;;5091392;28;20430;-51
2021/09/23 12:24:40;;;;;;;6.53;6.13;;;28.40;41.90;;;;;;5092403;28;20454;-51
2021/09/23 12:27:06;;;;;;;7.90;7.30;;;28.40;42.20;;;;;;5091386;28;20425;-52
2021/09/23 12:29:33;;;;;;;6.23;5.83;;;27.80;41.50;;;;;;5092161;28;20520;-52
2021/09/23 12:32:10;;;;;;;6.67;6.27;;;27.50;42.30;;;;;;5091309;28;20461;-51
2021/09/23 12:34:44;;;;;;;6.77;6.37;;;27.60;43.20;;;;;;5092252;28;20417;-59
2021/09/23 12:37:10;;;;;;;6.87;6.47;;;28.20;42.90;;;;;;5092146;28;20419;-52
2021/09/23 12:39:45;;;;;;;6.90;6.50;;;28.20;40.80;;;;;;5092189;28;20416;-48
2021/09/23 12:42:21;;;;;;;6.70;6.20;;;27.90;40.60;;;;;;5092032;28;20976;-48